createdAt,value
2022-09-06T00:01:10.750Z,27.83
2022-09-06T00:03:39.309Z,28.50
2022-09-06T00:06:09.686Z,28.57
2022-09-06T00:08:39.542Z,29.40
2022-09-06T00:11:08.285Z,28.50
2022-09-06T00:13:37.665Z,27.77
2022-09-06T00:16:08.355Z,26.10
2022-09-06T00:18:39.794Z,29.73
2022-09-06T00:21:17.683Z,29.63
2022-09-06T00:23:47.399Z,30.27
2022-09-06T00:26:16.248Z,28.37
2022-09-06T00:28:44.626Z,30.17
2022-09-06T00:31:14.994Z,30.47
2022-09-06T00:33:43.386Z,29.83
2022-09-06T00:36:13.025Z,28.60
2022-09-06T00:38:42.563Z,28.17
2022-09-06T00:41:14.375Z,27.63
2022-09-06T00:43:44.084Z,28.80
2022-09-06T00:46:16.697Z,29.40
2022-09-06T00:48:47.247Z,27.90
2022-09-06T00:51:19.776Z,27.33
2022-09-06T00:53:48.131Z,27.80
2022-09-06T00:56:17.822Z,28.63
2022-09-06T00:58:46.442Z,28.20
2022-09-06T01:01:14.780Z,28.00
2022-09-06T01:03:43.393Z,26.03
2022-09-06T01:06:22.567Z,28.53
2022-09-06T01:09:06.568Z,28.50
2022-09-06T01:11:59.769Z,27.57
2022-09-06T01:14:41.662Z,27.97
2022-09-06T01:17:19.611Z,28.00
2022-09-06T01:20:19.328Z,28.20
2022-09-06T01:23:05.625Z,29.50
2022-09-06T01:25:45.453Z,28.67
2022-09-06T01:28:28.959Z,28.60
2022-09-06T01:31:06.252Z,30.00
2022-09-06T01:33:44.567Z,27.47
2022-09-06T01:36:17.358Z,28.57
2022-09-06T01:38:45.595Z,27.00
2022-09-06T01:41:13.778Z,28.93
2022-09-06T01:43:48.048Z,27.40
2022-09-06T01:46:22.208Z,28.40
2022-09-06T01:49:12.909Z,28.60
2022-09-06T01:51:55.856Z,28.93
2022-09-06T01:54:37.247Z,28.03
2022-09-06T01:57:16.233Z,29.77
2022-09-06T02:00:03.757Z,27.80
2022-09-06T02:02:52.098Z,27.47
2022-09-06T02:05:25.250Z,28.60
2022-09-06T02:07:58.888Z,27.90
2022-09-06T02:10:32.054Z,28.07
2022-09-06T02:13:03.094Z,27.83
2022-09-06T02:15:35.610Z,29.10
2022-09-06T02:18:10.047Z,28.60
2022-09-06T02:20:43.273Z,28.00
2022-09-06T02:23:12.158Z,27.80
2022-09-06T02:25:44.021Z,27.13
2022-09-06T02:28:12.538Z,28.83
2022-09-06T02:30:46.418Z,29.77
2022-09-06T02:33:20.421Z,28.27
2022-09-06T02:35:50.765Z,28.70
2022-09-06T02:38:19.984Z,29.10
2022-09-06T02:40:50.059Z,28.27
2022-09-06T02:43:18.648Z,29.07
2022-09-06T02:45:48.274Z,27.93
2022-09-06T02:48:16.424Z,27.63
2022-09-06T02:50:44.542Z,26.87
2022-09-06T02:53:14.583Z,27.97
2022-09-06T02:55:47.081Z,28.23
2022-09-06T02:58:17.884Z,27.37
2022-09-06T03:00:51.126Z,27.20
2022-09-06T03:03:19.380Z,28.27
2022-09-06T03:05:48.565Z,28.40
2022-09-06T03:08:16.890Z,26.23
2022-09-06T03:10:49.919Z,26.73
2022-09-06T03:13:18.741Z,27.80
2022-09-06T03:15:50.680Z,29.07
2022-09-06T03:18:20.474Z,28.53
2022-09-06T03:20:50.563Z,27.77
2022-09-06T03:23:19.073Z,27.50
2022-09-06T03:25:47.408Z,29.10
2022-09-06T03:28:15.498Z,28.47
2022-09-06T03:30:46.445Z,29.50
2022-09-06T03:33:14.953Z,29.27
2022-09-06T03:35:50.058Z,28.20
2022-09-06T03:38:18.727Z,28.10
2022-09-06T03:40:47.605Z,28.60
2022-09-06T03:43:16.096Z,29.30
2022-09-06T03:45:47.702Z,30.20
2022-09-06T03:48:16.951Z,28.33
2022-09-06T03:50:47.882Z,28.27
2022-09-06T03:53:17.251Z,28.33
2022-09-06T03:55:46.400Z,29.07
2022-09-06T03:58:14.622Z,27.73
2022-09-06T04:00:42.819Z,30.20
2022-09-06T04:03:11.059Z,30.03
2022-09-06T04:05:39.328Z,28.57
2022-09-06T04:08:11.007Z,30.07
2022-09-06T04:10:39.256Z,30.07
2022-09-06T04:13:07.352Z,28.50
2022-09-06T04:15:35.602Z,30.07
2022-09-06T04:18:07.272Z,29.97
2022-09-06T04:20:37.325Z,31.83
2022-09-06T04:23:07.632Z,49.07
2022-09-06T04:25:41.217Z,29.90
2022-09-06T04:28:09.367Z,32.83
2022-09-06T04:30:37.477Z,30.87
2022-09-06T04:33:05.582Z,29.77
2022-09-06T04:35:33.644Z,30.37
2022-09-06T04:38:04.898Z,32.60
2022-09-06T04:40:33.103Z,30.63
2022-09-06T04:43:02.576Z,31.23
2022-09-06T04:45:32.967Z,31.10
2022-09-06T04:48:01.311Z,30.20
2022-09-06T04:50:29.424Z,31.80
2022-09-06T04:53:06.005Z,28.47
2022-09-06T04:55:34.600Z,29.03
2022-09-06T04:58:05.598Z,29.83
2022-09-06T05:00:35.622Z,29.93
2022-09-06T05:03:03.802Z,31.07
2022-09-06T05:05:31.933Z,28.57
2022-09-06T05:08:00.050Z,29.17
2022-09-06T05:10:28.357Z,28.93
2022-09-06T05:12:56.530Z,30.43
2022-09-06T05:15:26.081Z,28.77
2022-09-06T05:17:54.190Z,32.03
2022-09-06T05:20:22.245Z,29.93
2022-09-06T05:22:54.215Z,30.00
2022-09-06T05:25:22.590Z,30.63
2022-09-06T05:27:50.634Z,28.27
2022-09-06T05:30:19.696Z,30.87
2022-09-06T05:32:49.209Z,30.73
2022-09-06T05:35:17.618Z,30.83
2022-09-06T05:37:48.243Z,30.43
2022-09-06T05:40:16.439Z,31.00
2022-09-06T05:42:44.481Z,32.93
2022-09-06T05:45:12.791Z,41.40
2022-09-06T05:47:41.208Z,35.03
2022-09-06T05:50:11.672Z,30.60
2022-09-06T05:52:39.798Z,29.60
2022-09-06T05:55:10.992Z,31.60
2022-09-06T05:58:19.207Z,31.90
2022-09-06T06:10:27.023Z,28.23
2022-09-06T06:15:56.423Z,30.97
2022-09-06T06:24:06.813Z,30.10
2022-09-06T06:38:26.252Z,28.07
2022-09-06T06:41:02.055Z,26.90
2022-09-06T06:47:12.597Z,29.97
2022-09-06T06:49:40.944Z,28.73
2022-09-06T06:52:09.099Z,26.60
2022-09-06T06:54:39.013Z,27.40
2022-09-06T06:57:09.447Z,25.70
2022-09-06T06:59:38.365Z,26.60
2022-09-06T07:02:06.542Z,26.40
2022-09-06T07:04:34.699Z,26.07
2022-09-06T07:12:43.877Z,25.50
2022-09-06T07:15:12.370Z,27.60
2022-09-06T07:17:43.666Z,26.47
2022-09-06T07:22:46.798Z,26.37
2022-09-06T07:25:20.559Z,25.53
2022-09-06T07:27:50.143Z,26.23
2022-09-06T07:30:19.989Z,26.70
2022-09-06T07:32:48.474Z,25.20
2022-09-06T07:35:16.757Z,25.07
2022-09-06T07:37:45.071Z,25.83
2022-09-06T07:40:13.608Z,24.50
2022-09-06T07:42:43.458Z,24.77
2022-09-06T07:45:12.016Z,25.20
2022-09-06T07:53:24.654Z,25.67
2022-09-06T07:55:58.777Z,25.00
2022-09-06T07:58:28.397Z,25.57
2022-09-06T08:01:14.711Z,24.50
2022-09-06T08:03:43.455Z,25.47
2022-09-06T08:06:12.207Z,25.67
2022-09-06T08:11:25.048Z,23.87
2022-09-06T08:13:55.808Z,24.07
2022-09-06T08:16:25.479Z,24.70
2022-09-06T08:18:56.277Z,24.33
2022-09-06T08:21:26.525Z,23.73
2022-09-06T08:23:59.253Z,23.57
2022-09-06T08:26:28.738Z,24.20
2022-09-06T08:29:00.250Z,24.57
2022-09-06T08:31:29.285Z,24.80
2022-09-06T08:33:58.937Z,24.87
2022-09-06T08:36:29.709Z,25.50
2022-09-06T08:39:01.691Z,24.90
2022-09-06T08:41:34.413Z,25.40
2022-09-06T08:47:00.144Z,26.63
2022-09-06T08:49:31.829Z,24.93
2022-09-06T08:52:25.529Z,23.60
2022-09-06T08:55:02.380Z,24.47
2022-09-06T08:57:46.980Z,24.53
2022-09-06T09:00:25.541Z,23.70
2022-09-06T09:03:16.642Z,24.60
2022-09-06T09:05:52.576Z,22.97
2022-09-06T09:08:31.101Z,24.40
2022-09-06T09:11:08.160Z,24.10
2022-09-06T09:13:46.647Z,24.57
2022-09-06T09:16:18.805Z,22.90
2022-09-06T09:18:50.288Z,23.10
2022-09-06T09:21:28.119Z,23.00
2022-09-06T09:24:03.055Z,23.20
2022-09-06T09:26:36.975Z,23.83
2022-09-06T09:29:07.930Z,23.77
2022-09-06T09:31:53.724Z,23.60
2022-09-06T09:34:44.367Z,23.53
2022-09-06T09:40:37.786Z,23.50
2022-09-06T09:43:29.284Z,22.93
2022-09-06T09:46:21.675Z,23.20
2022-09-06T09:49:12.732Z,22.77
2022-09-06T09:51:42.415Z,23.40
2022-09-06T09:54:36.332Z,24.20
2022-09-06T10:00:49.654Z,24.60
2022-09-06T10:03:31.300Z,23.27
2022-09-06T10:09:39.821Z,23.40
2022-09-06T10:12:46.494Z,23.00
2022-09-06T10:15:48.979Z,23.80
2022-09-06T10:18:46.149Z,22.47
2022-09-06T10:21:43.110Z,23.33
2022-09-06T10:26:53.324Z,23.00
2022-09-06T10:33:54.399Z,21.97
2022-09-06T10:37:05.891Z,22.67
2022-09-06T10:40:04.994Z,23.97
2022-09-06T10:42:57.969Z,22.43
2022-09-06T10:46:22.073Z,23.50
2022-09-06T10:49:19.944Z,23.00
2022-09-06T10:52:05.546Z,23.47
2022-09-06T10:55:15.171Z,23.03
2022-09-06T11:01:12.604Z,23.70
2022-09-06T11:11:05.936Z,23.40
2022-09-06T11:13:49.908Z,22.80
2022-09-06T11:16:48.810Z,23.77
2022-09-06T11:19:39.938Z,23.53
2022-09-06T11:23:23.244Z,23.30
2022-09-06T11:26:54.490Z,23.27
2022-09-06T11:29:38.255Z,24.27
2022-09-06T11:32:39.105Z,24.37
2022-09-06T11:35:32.983Z,24.57
2022-09-06T11:38:37.322Z,23.80
2022-09-06T11:41:38.685Z,23.40
2022-09-06T11:45:13.284Z,22.80
2022-09-06T11:48:37.065Z,23.33
2022-09-06T11:51:22.152Z,23.83
2022-09-06T11:54:37.323Z,23.87
2022-09-06T11:57:28.967Z,22.83
2022-09-06T12:00:36.535Z,23.47
2022-09-06T12:06:40.376Z,24.03
2022-09-06T12:09:28.696Z,24.03
2022-09-06T12:11:58.026Z,25.07
2022-09-06T12:14:32.866Z,23.27
2022-09-06T12:21:13.991Z,22.63
2022-09-06T12:23:53.351Z,22.20
2022-09-06T12:26:49.802Z,21.47
2022-09-06T12:29:26.615Z,22.13
2022-09-06T12:32:18.092Z,21.50
2022-09-06T12:38:32.427Z,21.40
2022-09-06T12:41:07.149Z,21.17
2022-09-06T12:43:59.350Z,22.50
2022-09-06T12:46:40.339Z,21.80
2022-09-06T12:49:25.948Z,21.27
2022-09-06T12:52:40.336Z,21.97
2022-09-06T12:58:31.428Z,21.57
2022-09-06T13:01:23.479Z,21.73
2022-09-06T13:04:16.334Z,22.80
2022-09-06T13:07:26.073Z,22.77
2022-09-06T13:10:16.434Z,22.73
2022-09-06T13:12:58.564Z,22.20
2022-09-06T13:15:43.920Z,22.30
2022-09-06T13:18:30.364Z,21.77
2022-09-06T13:21:08.596Z,22.80
2022-09-06T13:24:04.176Z,22.40
2022-09-06T13:26:44.041Z,22.20
2022-09-06T13:29:42.783Z,22.23
2022-09-06T13:32:21.885Z,22.17
2022-09-06T13:35:17.902Z,23.37
2022-09-06T13:37:56.557Z,23.87
2022-09-06T13:41:10.105Z,21.73
2022-09-06T13:43:45.009Z,20.40
2022-09-06T13:46:15.265Z,20.63
2022-09-06T13:48:44.526Z,19.10
2022-09-06T13:51:29.791Z,20.20
2022-09-06T13:54:10.297Z,25.77
2022-09-06T13:56:44.045Z,34.40
2022-09-06T13:59:27.326Z,49.93
2022-09-06T14:02:14.259Z,52.37
2022-09-06T14:05:07.331Z,52.50
2022-09-06T14:08:09.376Z,53.50
2022-09-06T14:11:11.493Z,49.33
2022-09-06T14:13:40.326Z,46.80
2022-09-06T14:16:09.149Z,46.33
2022-09-06T14:18:45.808Z,38.70
2022-09-06T14:21:19.342Z,36.67
2022-09-06T14:24:18.781Z,34.97
2022-09-06T14:27:02.159Z,33.87
2022-09-06T14:29:31.331Z,34.50
2022-09-06T14:31:59.715Z,32.27
2022-09-06T14:34:48.370Z,33.03
2022-09-06T14:37:41.838Z,32.47
2022-09-06T14:40:15.804Z,30.33
2022-09-06T14:42:53.117Z,31.40
2022-09-06T14:45:21.854Z,32.47
2022-09-06T14:47:50.435Z,33.53
2022-09-06T14:50:36.373Z,34.33
2022-09-06T14:53:24.130Z,33.43
2022-09-06T14:56:24.981Z,31.57
2022-09-06T14:59:20.700Z,30.10
2022-09-06T15:01:55.104Z,30.60
2022-09-06T15:04:35.784Z,31.40
2022-09-06T15:07:20.928Z,28.83
2022-09-06T15:09:52.118Z,30.10
2022-09-06T15:12:20.741Z,29.87
2022-09-06T15:14:51.620Z,30.43
2022-09-06T15:17:20.023Z,30.53
2022-09-06T15:19:48.903Z,31.20
2022-09-06T15:22:20.831Z,32.20
2022-09-06T15:24:56.713Z,31.57
2022-09-06T15:27:24.963Z,32.03
2022-09-06T15:29:53.198Z,30.80
2022-09-06T15:32:21.580Z,30.27
2022-09-06T15:34:49.920Z,29.70
2022-09-06T15:37:18.399Z,30.60
2022-09-06T15:39:50.825Z,30.00
2022-09-06T15:42:19.194Z,30.80
2022-09-06T15:44:49.799Z,30.13
2022-09-06T15:47:18.068Z,30.63
2022-09-06T15:49:46.322Z,30.83
2022-09-06T15:52:16.724Z,28.93
2022-09-06T15:55:17.206Z,29.23
2022-09-06T15:57:47.558Z,28.43
2022-09-06T16:00:22.007Z,28.40
2022-09-06T16:02:50.724Z,29.50
2022-09-06T16:05:19.448Z,29.57
2022-09-06T16:07:47.778Z,29.47
2022-09-06T16:10:16.303Z,27.83
2022-09-06T16:12:50.010Z,30.70
2022-09-06T16:15:44.597Z,28.70
2022-09-06T16:18:13.114Z,30.17
2022-09-06T16:20:41.514Z,29.17
2022-09-06T16:23:09.848Z,30.57
2022-09-06T16:25:38.095Z,30.00
2022-09-06T16:28:07.939Z,31.63
2022-09-06T16:30:36.353Z,30.83
2022-09-06T16:33:04.807Z,33.77
2022-09-06T16:35:33.242Z,31.80
2022-09-06T16:38:02.332Z,32.20
2022-09-06T16:40:32.688Z,31.90
2022-09-06T16:43:01.076Z,30.67
2022-09-06T16:45:32.043Z,32.47
2022-09-06T16:48:18.451Z,32.13
2022-09-06T16:51:20.700Z,31.43
2022-09-06T16:54:06.375Z,34.03
2022-09-06T16:56:43.829Z,33.77
2022-09-06T16:59:15.347Z,33.23
2022-09-06T17:01:45.737Z,32.67
2022-09-06T17:04:17.493Z,33.27
2022-09-06T17:06:45.991Z,32.60
2022-09-06T17:12:11.597Z,33.83
2022-09-06T17:14:43.478Z,32.80
2022-09-06T17:17:28.692Z,33.67
2022-09-06T17:20:04.198Z,33.73
2022-09-06T17:22:40.449Z,34.40
2022-09-06T17:25:11.815Z,34.47
2022-09-06T17:27:40.243Z,33.83
2022-09-06T17:30:10.275Z,35.10
2022-09-06T17:32:40.986Z,33.13
2022-09-06T17:35:09.693Z,35.00
2022-09-06T17:37:38.090Z,35.07
2022-09-06T17:40:10.745Z,34.93
2022-09-06T17:42:39.314Z,35.27
2022-09-06T17:45:08.627Z,35.27
2022-09-06T17:47:37.608Z,35.03
2022-09-06T17:50:08.150Z,34.67
2022-09-06T17:52:39.907Z,35.33
2022-09-06T17:58:09.327Z,34.13
2022-09-06T18:00:43.248Z,34.80
2022-09-06T18:03:15.984Z,34.03
2022-09-06T18:07:04.052Z,34.10
2022-09-06T18:10:32.162Z,34.00
2022-09-06T18:13:14.058Z,33.40
2022-09-06T18:15:42.403Z,32.40
2022-09-06T18:18:11.056Z,31.83
2022-09-06T18:20:40.113Z,32.23
2022-09-06T18:23:20.798Z,33.37
2022-09-06T18:25:57.352Z,32.87
2022-09-06T18:32:35.028Z,30.53
2022-09-06T18:35:21.268Z,30.40
2022-09-06T18:38:25.462Z,30.80
2022-09-06T18:41:00.242Z,30.27
2022-09-06T18:43:48.466Z,29.70
2022-09-06T18:46:20.986Z,29.90
2022-09-06T18:48:55.556Z,28.73
2022-09-06T18:51:48.234Z,30.20
2022-09-06T18:58:25.655Z,30.20
2022-09-06T19:05:18.959Z,30.13
2022-09-06T19:08:45.157Z,29.40
2022-09-06T19:12:16.711Z,29.50
2022-09-06T19:19:01.936Z,30.53
2022-09-06T19:24:57.291Z,30.73
2022-09-06T19:27:28.649Z,31.10
2022-09-06T19:29:57.732Z,31.70
2022-09-06T19:32:43.003Z,31.47
2022-09-06T19:35:19.110Z,32.87
2022-09-06T19:38:21.239Z,31.33
2022-09-06T19:40:51.117Z,34.70
2022-09-06T19:43:28.519Z,32.47
2022-09-06T19:46:04.872Z,32.17
2022-09-06T19:48:35.504Z,34.30
2022-09-06T19:51:16.507Z,34.10
2022-09-06T19:53:53.460Z,33.13
2022-09-06T19:56:39.355Z,31.90
2022-09-06T19:59:12.445Z,35.17
2022-09-06T20:01:43.471Z,34.00
2022-09-06T20:04:44.333Z,36.00
2022-09-06T20:07:19.323Z,48.30
2022-09-06T20:10:08.199Z,63.60
2022-09-06T20:12:37.053Z,62.67
2022-09-06T20:15:08.483Z,69.97
2022-09-06T20:17:37.353Z,60.60
2022-09-06T20:20:09.436Z,55.33
2022-09-06T20:22:37.910Z,53.37
2022-09-06T20:25:12.126Z,51.90
2022-09-06T20:27:44.375Z,49.20
2022-09-06T20:30:16.192Z,45.53
2022-09-06T20:32:47.613Z,45.43
2022-09-06T20:35:20.345Z,41.17
2022-09-06T20:37:48.757Z,40.90
2022-09-06T20:40:18.771Z,38.17
2022-09-06T20:43:07.322Z,36.47
2022-09-06T20:45:35.774Z,35.13
2022-09-06T20:48:04.508Z,34.57
2022-09-06T20:50:33.099Z,34.70
2022-09-06T20:53:10.587Z,34.27
2022-09-06T20:55:40.493Z,31.50
2022-09-06T20:58:08.951Z,33.50
2022-09-06T21:00:41.258Z,32.03
2022-09-06T21:03:09.810Z,31.87
2022-09-06T21:05:43.197Z,32.20
2022-09-06T21:08:20.935Z,35.93
2022-09-06T21:10:51.101Z,35.87
2022-09-06T21:13:19.888Z,32.10
2022-09-06T21:15:49.169Z,34.57
2022-09-06T21:18:17.745Z,40.83
2022-09-06T21:21:00.779Z,47.20
2022-09-06T21:23:36.530Z,43.53
2022-09-06T21:26:08.389Z,34.60
2022-09-06T21:28:41.859Z,34.23
2022-09-06T21:31:15.283Z,35.03
2022-09-06T21:33:46.310Z,33.80
2022-09-06T21:36:16.374Z,35.70
2022-09-06T21:38:46.552Z,33.70
2022-09-06T21:41:17.730Z,34.70
2022-09-06T21:43:58.414Z,34.53
2022-09-06T21:46:32.533Z,33.90
2022-09-06T21:49:03.849Z,35.13
2022-09-06T21:51:32.767Z,36.07
2022-09-06T21:54:03.598Z,38.73
2022-09-06T21:56:36.138Z,35.87
2022-09-06T21:59:05.252Z,35.67
2022-09-06T22:01:36.020Z,35.80
2022-09-06T22:04:05.154Z,35.43
2022-09-06T22:06:37.846Z,34.60
2022-09-06T22:09:10.650Z,36.60
2022-09-06T22:11:48.403Z,34.80
2022-09-06T22:14:18.335Z,35.03
2022-09-06T22:16:47.305Z,35.33
2022-09-06T22:19:15.815Z,33.70
2022-09-06T22:21:47.124Z,33.43
2022-09-06T22:24:19.477Z,35.00
2022-09-06T22:26:49.460Z,35.30
2022-09-06T22:29:17.687Z,35.03
2022-09-06T22:31:46.188Z,34.77
2022-09-06T22:34:14.508Z,36.00
2022-09-06T22:36:44.922Z,34.37
2022-09-06T22:39:13.425Z,33.23
2022-09-06T22:41:41.679Z,19.37
2022-09-06T22:44:11.311Z,31.80
2022-09-06T22:46:39.696Z,32.10
2022-09-06T22:49:08.270Z,32.13
2022-09-06T22:51:36.799Z,33.13
2022-09-06T22:54:05.710Z,31.77
2022-09-06T22:56:34.237Z,33.83
2022-09-06T22:59:02.569Z,32.97
2022-09-06T23:01:32.952Z,32.60
2022-09-06T23:04:04.699Z,33.50
2022-09-06T23:06:32.984Z,32.87
2022-09-06T23:09:03.754Z,33.07
2022-09-06T23:11:33.292Z,32.23
2022-09-06T23:14:02.986Z,29.13
2022-09-06T23:16:35.726Z,34.03
2022-09-06T23:19:04.074Z,34.30
2022-09-06T23:21:37.063Z,34.57
2022-09-06T23:24:05.646Z,36.30
2022-09-06T23:26:41.215Z,36.70
2022-09-06T23:29:09.381Z,36.97
2022-09-06T23:31:39.248Z,38.00
2022-09-06T23:34:10.645Z,40.90
2022-09-06T23:36:38.880Z,38.70
2022-09-06T23:39:10.245Z,39.70
2022-09-06T23:41:38.762Z,36.33
2022-09-06T23:44:09.122Z,31.33
2022-09-06T23:46:39.065Z,35.07
2022-09-06T23:49:07.568Z,35.17
2022-09-06T23:51:35.804Z,34.13
2022-09-06T23:54:04.058Z,33.53
2022-09-06T23:56:32.184Z,33.70
2022-09-06T23:59:00.313Z,33.70
